createdAt,value
2018-12-16T00:02:31.539Z,0.87
2018-12-16T00:05:05.788Z,0.90
2018-12-16T00:07:39.297Z,0.81
2018-12-16T00:10:13.981Z,0.84
2018-12-16T00:12:46.084Z,0.78
2018-12-16T00:15:18.241Z,0.83
2018-12-16T00:17:50.739Z,0.79
2018-12-16T00:20:22.501Z,0.76
2018-12-16T00:22:54.743Z,0.78
2018-12-16T00:25:32.259Z,0.74
2018-12-16T00:28:04.526Z,0.73
2018-12-16T00:33:30.489Z,0.68
2018-12-16T00:36:02.712Z,0.67
2018-12-16T00:38:34.995Z,0.76
2018-12-16T00:41:07.241Z,0.72
2018-12-16T00:43:39.254Z,0.72
2018-12-16T00:46:11.016Z,0.72
2018-12-16T00:48:41.298Z,0.67
2018-12-16T00:51:13.515Z,0.68
2018-12-16T00:53:45.540Z,0.71
2018-12-16T00:56:18.783Z,0.68
2018-12-16T00:58:51.120Z,0.72
2018-12-16T01:01:24.489Z,0.72
2018-12-16T01:03:56.854Z,0.72
2018-12-16T01:06:31.143Z,0.70
2018-12-16T01:09:03.539Z,0.73
2018-12-16T01:11:35.171Z,0.72
2018-12-16T01:14:07.127Z,0.72
2018-12-16T01:16:39.520Z,0.73
2018-12-16T01:19:11.507Z,0.74
2018-12-16T01:21:43.573Z,0.75
2018-12-16T01:24:13.709Z,0.78
2018-12-16T01:26:45.857Z,0.79
2018-12-16T01:29:18.424Z,0.73
2018-12-16T01:31:50.540Z,0.80
2018-12-16T01:34:22.607Z,0.81
2018-12-16T01:36:54.758Z,0.80
2018-12-16T01:39:27.075Z,0.81
2018-12-16T01:42:00.230Z,0.79
2018-12-16T01:44:32.124Z,0.77
2018-12-16T01:47:04.877Z,0.74
2018-12-16T01:49:36.460Z,0.76
2018-12-16T01:52:08.054Z,0.75
2018-12-16T01:54:39.952Z,0.71
2018-12-16T01:57:12.322Z,0.76
2018-12-16T01:59:44.937Z,0.77
2018-12-16T02:02:15.585Z,0.76
2018-12-16T02:04:47.720Z,0.77
2018-12-16T02:07:19.872Z,0.81
2018-12-16T02:09:52.221Z,0.84
2018-12-16T02:12:25.568Z,0.84
2018-12-16T02:14:58.224Z,0.83
2018-12-16T02:17:30.464Z,0.76
2018-12-16T02:20:02.460Z,0.86
2018-12-16T02:22:34.654Z,0.85
2018-12-16T02:25:07.691Z,0.88
2018-12-16T02:27:40.003Z,0.88
2018-12-16T02:30:16.308Z,0.85
2018-12-16T02:32:48.688Z,0.77
2018-12-16T02:35:18.928Z,0.92
2018-12-16T02:37:51.175Z,0.86
2018-12-16T02:40:24.259Z,0.88
2018-12-16T02:42:56.696Z,0.85
2018-12-16T02:45:29.120Z,0.86
2018-12-16T02:48:09.597Z,0.88
2018-12-16T02:50:41.668Z,0.85
2018-12-16T02:53:13.630Z,0.83
2018-12-16T02:55:45.603Z,0.88
2018-12-16T02:58:17.877Z,0.91
2018-12-16T03:00:50.003Z,0.89
2018-12-16T03:03:22.177Z,0.81
2018-12-16T03:05:52.788Z,0.95
2018-12-16T03:08:24.597Z,0.96
2018-12-16T03:10:55.088Z,0.95
2018-12-16T03:13:27.299Z,0.89
2018-12-16T03:15:59.500Z,0.97
2018-12-16T03:18:31.717Z,0.95
2018-12-16T03:21:05.843Z,0.88
2018-12-16T03:23:36.319Z,0.98
2018-12-16T03:26:08.048Z,0.93
2018-12-16T03:28:40.068Z,0.94
2018-12-16T03:31:12.310Z,0.91
2018-12-16T03:33:44.469Z,0.88
2018-12-16T03:36:18.914Z,0.86
2018-12-16T03:38:51.043Z,0.88
2018-12-16T03:41:23.217Z,0.88
2018-12-16T03:43:55.317Z,0.86
2018-12-16T03:46:27.534Z,0.84
2018-12-16T03:48:59.791Z,0.80
2018-12-16T03:51:32.060Z,0.90
2018-12-16T03:54:03.980Z,0.92
2018-12-16T03:56:36.333Z,0.86
2018-12-16T03:59:16.425Z,0.88
2018-12-16T04:01:53.889Z,0.80
2018-12-16T04:04:27.215Z,0.92
2018-12-16T04:06:59.595Z,0.93
2018-12-16T04:09:31.476Z,0.88
2018-12-16T04:12:03.598Z,0.89
2018-12-16T04:14:35.680Z,0.85
2018-12-16T04:17:08.000Z,0.82
2018-12-16T04:19:38.491Z,0.80
2018-12-16T04:22:10.613Z,0.91
2018-12-16T04:24:42.828Z,0.84
2018-12-16T04:27:15.031Z,0.89
2018-12-16T04:29:47.164Z,0.93
2018-12-16T04:32:19.447Z,0.92
2018-12-16T04:34:51.487Z,0.93
2018-12-16T04:37:23.836Z,0.99
2018-12-16T04:39:55.966Z,0.95
2018-12-16T04:42:26.325Z,0.94
2018-12-16T04:44:58.680Z,0.94
2018-12-16T04:47:30.972Z,0.98
2018-12-16T04:50:03.034Z,0.95
2018-12-16T04:52:35.472Z,0.96
2018-12-16T04:55:07.884Z,0.95
2018-12-16T04:57:40.218Z,0.89
2018-12-16T05:00:12.565Z,0.89
2018-12-16T05:02:44.528Z,0.87
2018-12-16T05:05:18.481Z,0.91
2018-12-16T05:07:52.375Z,0.85
2018-12-16T05:10:29.011Z,0.85
2018-12-16T05:13:00.564Z,0.81
2018-12-16T05:15:32.895Z,0.88
2018-12-16T05:18:04.685Z,0.88
2018-12-16T05:20:37.232Z,0.87
2018-12-16T05:23:11.766Z,0.94
2018-12-16T05:25:43.487Z,0.95
2018-12-16T05:28:16.180Z,0.87
2018-12-16T05:30:48.080Z,0.88
2018-12-16T05:33:20.181Z,0.93
2018-12-16T05:35:54.822Z,0.92
2018-12-16T05:41:20.426Z,0.92
2018-12-16T05:43:52.283Z,0.84
2018-12-16T05:46:24.940Z,0.86
2018-12-16T05:48:56.921Z,0.81
2018-12-16T05:51:29.588Z,0.77
2018-12-16T05:54:01.519Z,0.86
2018-12-16T05:56:33.141Z,0.82
2018-12-16T05:59:03.092Z,0.84
2018-12-16T06:01:35.349Z,0.88
2018-12-16T06:04:07.688Z,0.87
2018-12-16T06:06:40.161Z,0.89
2018-12-16T06:09:12.330Z,0.89
2018-12-16T06:11:44.661Z,0.89
2018-12-16T06:14:16.888Z,0.90
2018-12-16T06:16:49.266Z,0.93
2018-12-16T06:19:19.345Z,0.92
2018-12-16T06:21:51.373Z,0.88
2018-12-16T06:24:21.497Z,0.86
2018-12-16T06:26:53.440Z,0.90
2018-12-16T06:29:23.447Z,0.87
2018-12-16T06:31:55.843Z,0.87
2018-12-16T06:34:28.731Z,0.82
2018-12-16T06:37:00.486Z,0.81
2018-12-16T06:39:32.771Z,0.84
2018-12-16T06:42:05.241Z,0.83
2018-12-16T06:44:37.505Z,0.78
2018-12-16T06:47:09.464Z,0.80
2018-12-16T06:49:41.621Z,0.79
2018-12-16T06:52:14.007Z,0.81
2018-12-16T06:57:41.100Z,0.77
2018-12-16T07:00:14.210Z,0.79
2018-12-16T07:02:48.994Z,0.79
2018-12-16T07:05:21.414Z,0.83
2018-12-16T07:07:56.188Z,0.83
2018-12-16T07:10:28.378Z,0.86
2018-12-16T07:12:58.437Z,0.88
2018-12-16T07:15:30.716Z,0.87
2018-12-16T07:18:02.686Z,0.85
2018-12-16T07:20:35.122Z,0.87
2018-12-16T07:23:07.320Z,0.88
2018-12-16T07:25:39.742Z,0.86
2018-12-16T07:28:11.945Z,0.97
2018-12-16T07:30:43.959Z,0.94
2018-12-16T07:33:17.188Z,0.97
2018-12-16T07:35:51.722Z,1.01
2018-12-16T07:38:23.428Z,1.07
2018-12-16T07:40:53.611Z,1.07
2018-12-16T07:43:25.944Z,1.03
2018-12-16T07:45:58.216Z,1.01
2018-12-16T07:48:30.748Z,1.04
2018-12-16T07:51:02.414Z,1.05
2018-12-16T07:53:34.612Z,1.11
2018-12-16T07:56:06.921Z,1.08
2018-12-16T07:58:39.361Z,1.01
2018-12-16T08:01:11.424Z,1.10
2018-12-16T08:03:43.635Z,1.10
2018-12-16T08:06:15.841Z,1.12
2018-12-16T08:08:47.744Z,1.11
2018-12-16T08:11:19.753Z,1.08
2018-12-16T08:13:51.971Z,1.10
2018-12-16T08:16:24.101Z,1.10
2018-12-16T08:18:54.448Z,1.07
2018-12-16T08:21:27.039Z,1.11
2018-12-16T08:23:59.520Z,1.19
2018-12-16T08:26:31.466Z,1.13
2018-12-16T08:29:04.005Z,1.18
2018-12-16T08:31:36.175Z,1.12
2018-12-16T08:34:08.115Z,1.18
2018-12-16T08:36:40.428Z,1.23
2018-12-16T08:39:12.443Z,1.18
2018-12-16T08:41:44.667Z,1.24
2018-12-16T08:44:15.103Z,1.18
2018-12-16T08:46:47.341Z,1.19
2018-12-16T08:49:17.616Z,1.23
2018-12-16T08:51:49.399Z,1.21
2018-12-16T08:54:21.929Z,1.24
2018-12-16T08:56:54.345Z,1.21
2018-12-16T08:59:26.655Z,1.24
2018-12-16T09:01:59.092Z,1.32
2018-12-16T09:04:31.064Z,1.37
2018-12-16T09:07:04.031Z,1.42
2018-12-16T09:09:36.539Z,1.44
2018-12-16T09:12:08.309Z,1.63
2018-12-16T09:14:42.719Z,1.79
2018-12-16T09:17:14.858Z,2.20
2018-12-16T09:19:47.136Z,2.27
2018-12-16T09:22:17.300Z,2.23
2018-12-16T09:24:47.534Z,2.11
2018-12-16T09:27:19.927Z,2.02
2018-12-16T09:30:00.794Z,1.97
2018-12-16T09:32:33.269Z,1.84
2018-12-16T09:35:05.905Z,1.75
2018-12-16T09:37:40.490Z,1.70
2018-12-16T09:40:12.132Z,1.80
2018-12-16T09:42:45.188Z,1.85
2018-12-16T09:45:17.803Z,1.94
2018-12-16T09:47:50.167Z,2.04
2018-12-16T09:50:22.468Z,2.36
2018-12-16T09:52:54.752Z,2.54
2018-12-16T09:55:26.992Z,2.64
2018-12-16T09:57:59.296Z,2.67
2018-12-16T10:00:31.803Z,2.68
2018-12-16T10:03:06.389Z,2.70
2018-12-16T10:05:38.268Z,2.65
2018-12-16T10:08:10.602Z,2.78
2018-12-16T10:10:43.060Z,2.65
2018-12-16T10:13:15.169Z,2.54
2018-12-16T10:15:47.550Z,2.48
2018-12-16T10:18:19.841Z,2.54
2018-12-16T10:20:52.131Z,2.53
2018-12-16T10:23:24.837Z,2.49
2018-12-16T10:25:55.413Z,2.42
2018-12-16T10:28:27.631Z,2.30
2018-12-16T10:30:59.784Z,2.33
2018-12-16T10:33:31.749Z,2.41
2018-12-16T10:36:03.804Z,2.42
2018-12-16T10:38:35.772Z,2.35
2018-12-16T10:41:08.067Z,2.28
2018-12-16T10:43:40.349Z,2.24
2018-12-16T10:46:12.435Z,2.19
2018-12-16T10:48:44.318Z,2.15
2018-12-16T10:51:21.101Z,2.14
2018-12-16T10:53:52.879Z,2.16
2018-12-16T10:56:25.074Z,2.26
2018-12-16T10:58:57.319Z,2.23
2018-12-16T11:01:29.630Z,2.31
2018-12-16T11:04:01.524Z,2.47
2018-12-16T11:06:34.161Z,2.67
2018-12-16T11:09:06.693Z,2.90
2018-12-16T11:11:40.993Z,2.88
2018-12-16T11:14:14.095Z,3.03
2018-12-16T11:16:46.045Z,3.28
2018-12-16T11:19:17.888Z,3.55
2018-12-16T11:21:49.996Z,3.58
2018-12-16T11:24:24.506Z,3.48
2018-12-16T11:26:56.333Z,3.33
2018-12-16T11:29:28.693Z,3.15
2018-12-16T11:32:02.573Z,3.00
2018-12-16T11:34:34.164Z,2.75
2018-12-16T11:37:04.684Z,2.75
2018-12-16T11:39:36.747Z,2.72
2018-12-16T11:42:08.944Z,2.61
2018-12-16T11:44:41.627Z,2.50
2018-12-16T11:47:13.753Z,2.42
2018-12-16T11:49:46.286Z,2.44
2018-12-16T11:52:18.201Z,2.53
2018-12-16T11:54:50.545Z,2.54
2018-12-16T11:57:24.849Z,2.59
2018-12-16T11:59:58.512Z,2.70
2018-12-16T12:02:47.055Z,2.71
2018-12-16T12:05:18.752Z,2.86
2018-12-16T12:07:50.992Z,2.84
2018-12-16T12:10:24.260Z,2.83
2018-12-16T12:12:56.714Z,2.84
2018-12-16T12:15:31.187Z,2.70
2018-12-16T12:18:02.829Z,2.66
2018-12-16T12:25:36.939Z,2.58
2018-12-16T12:28:07.803Z,2.60
2018-12-16T12:30:40.396Z,2.58
2018-12-16T12:33:13.480Z,2.51
2018-12-16T12:35:45.724Z,2.39
2018-12-16T12:38:17.900Z,2.38
2018-12-16T12:40:50.852Z,2.39
2018-12-16T12:43:21.298Z,2.34
2018-12-16T12:45:53.716Z,2.34
2018-12-16T12:48:25.803Z,2.26
2018-12-16T12:50:58.060Z,2.27
2018-12-16T12:53:36.280Z,2.23
2018-12-16T12:56:10.083Z,2.19
2018-12-16T12:58:43.108Z,2.26
2018-12-16T13:01:14.666Z,2.19
2018-12-16T13:03:46.981Z,2.17
2018-12-16T13:06:18.971Z,2.09
2018-12-16T13:08:51.225Z,2.09
2018-12-16T13:11:27.097Z,2.05
2018-12-16T13:13:59.828Z,2.06
2018-12-16T13:16:32.092Z,2.00
2018-12-16T13:21:59.658Z,2.07
2018-12-16T13:24:30.261Z,2.04
2018-12-16T13:27:02.638Z,2.00
2018-12-16T13:29:34.752Z,2.04
2018-12-16T13:32:05.001Z,1.97
2018-12-16T13:34:37.440Z,2.01
2018-12-16T13:37:18.421Z,1.95
2018-12-16T13:39:50.591Z,1.97
2018-12-16T13:42:22.614Z,1.98
2018-12-16T13:44:55.677Z,2.07
2018-12-16T13:47:27.318Z,2.02
2018-12-16T13:49:57.600Z,2.03
2018-12-16T13:52:31.869Z,2.07
2018-12-16T13:55:03.617Z,2.04
2018-12-16T13:57:34.880Z,2.06
2018-12-16T14:00:09.754Z,2.02
2018-12-16T14:02:42.183Z,2.07
2018-12-16T14:05:14.379Z,2.07
2018-12-16T14:07:46.541Z,2.06
2018-12-16T14:10:21.231Z,2.07
2018-12-16T14:12:55.648Z,2.08
2018-12-16T14:15:27.460Z,1.99
2018-12-16T14:17:59.756Z,1.97
2018-12-16T14:20:32.000Z,1.92
2018-12-16T14:23:04.561Z,1.96
2018-12-16T14:25:39.156Z,1.99
2018-12-16T14:28:13.054Z,1.96
2018-12-16T14:30:44.766Z,1.91
2018-12-16T14:33:16.970Z,1.79
2018-12-16T14:38:41.153Z,1.41
2018-12-16T14:41:16.646Z,1.33
2018-12-16T14:43:48.394Z,1.18
2018-12-16T14:46:20.619Z,1.19
2018-12-16T14:48:52.986Z,1.06
2018-12-16T14:51:24.905Z,1.02
2018-12-16T14:53:57.021Z,0.95
2018-12-16T14:56:29.610Z,0.99
2018-12-16T14:59:01.386Z,0.87
2018-12-16T15:01:31.537Z,0.85
2018-12-16T15:04:03.719Z,0.85
2018-12-16T15:06:35.804Z,0.83
2018-12-16T15:09:09.169Z,0.69
2018-12-16T15:11:41.037Z,0.75
2018-12-16T15:14:13.460Z,0.75
2018-12-16T15:16:43.652Z,0.74
2018-12-16T15:19:15.923Z,0.79
2018-12-16T15:21:46.157Z,0.74
2018-12-16T15:24:18.476Z,0.89
2018-12-16T15:26:50.646Z,0.91
2018-12-16T15:29:22.195Z,0.88
2018-12-16T15:31:55.342Z,0.90
2018-12-16T15:34:27.591Z,0.89
2018-12-16T15:36:57.826Z,0.93
2018-12-16T15:39:30.112Z,1.01
2018-12-16T15:42:02.218Z,0.98
2018-12-16T15:44:34.835Z,0.87
2018-12-16T15:47:06.797Z,0.93
2018-12-16T15:49:38.594Z,0.93
2018-12-16T15:52:08.729Z,0.90
2018-12-16T15:54:40.835Z,0.94
2018-12-16T15:57:13.189Z,0.94
2018-12-16T15:59:45.228Z,0.92
2018-12-16T16:02:17.399Z,1.03
2018-12-16T16:04:49.548Z,0.93
2018-12-16T16:07:21.628Z,0.95
2018-12-16T16:09:53.657Z,1.05
2018-12-16T16:12:25.835Z,1.11
2018-12-16T16:14:58.407Z,1.03
2018-12-16T16:17:30.758Z,0.98
2018-12-16T16:20:03.147Z,1.03
2018-12-16T16:22:35.581Z,1.00
2018-12-16T16:25:07.814Z,1.02
2018-12-16T16:27:39.727Z,1.02
2018-12-16T16:30:11.808Z,1.06
2018-12-16T16:32:46.198Z,1.13
2018-12-16T16:35:18.025Z,1.02
2018-12-16T16:37:50.217Z,1.04
2018-12-16T16:40:22.781Z,1.02
2018-12-16T16:42:55.051Z,0.97
2018-12-16T16:45:27.856Z,0.98
2018-12-16T16:48:00.354Z,0.91
2018-12-16T16:50:33.378Z,0.99
2018-12-16T16:53:06.948Z,0.98
2018-12-16T16:55:40.136Z,1.02
2018-12-16T16:58:13.043Z,1.07
2018-12-16T17:00:48.149Z,1.02
2018-12-16T17:03:20.345Z,1.13
2018-12-16T17:05:54.955Z,1.08
2018-12-16T17:08:26.712Z,1.13
2018-12-16T17:10:57.474Z,1.06
2018-12-16T17:13:28.490Z,1.04
2018-12-16T17:16:00.585Z,1.06
2018-12-16T17:18:32.812Z,1.10
2018-12-16T17:21:04.756Z,1.09
2018-12-16T17:23:37.020Z,1.06
2018-12-16T17:26:08.962Z,0.99
2018-12-16T17:28:41.017Z,0.97
2018-12-16T17:31:13.067Z,1.04
2018-12-16T17:33:47.820Z,1.01
2018-12-16T17:36:19.798Z,1.08
2018-12-16T17:38:51.843Z,0.97
2018-12-16T17:41:24.003Z,1.01
2018-12-16T17:43:56.596Z,1.00
2018-12-16T17:46:26.636Z,1.05
2018-12-16T17:48:58.766Z,1.05
2018-12-16T17:51:31.124Z,1.19
2018-12-16T17:54:03.352Z,1.13
2018-12-16T17:56:37.128Z,1.12
2018-12-16T17:59:09.164Z,1.21
2018-12-16T18:01:41.557Z,1.26
2018-12-16T18:04:13.431Z,1.23
2018-12-16T18:06:45.616Z,1.16
2018-12-16T18:09:16.245Z,1.25
2018-12-16T18:11:48.796Z,1.31
2018-12-16T18:14:20.925Z,1.26
2018-12-16T18:16:54.403Z,1.31
2018-12-16T18:19:27.087Z,1.31
2018-12-16T18:21:59.586Z,1.34
2018-12-16T18:24:31.544Z,1.40
2018-12-16T18:27:02.014Z,1.36
2018-12-16T18:29:34.808Z,1.43
2018-12-16T18:32:08.761Z,1.43
2018-12-16T18:34:42.984Z,1.46
2018-12-16T18:37:14.811Z,1.48
2018-12-16T18:39:47.140Z,1.42
2018-12-16T18:42:19.505Z,1.46
2018-12-16T18:44:49.618Z,1.56
2018-12-16T18:47:21.796Z,1.46
2018-12-16T18:49:53.817Z,1.52
2018-12-16T18:52:28.869Z,1.54
2018-12-16T18:55:01.100Z,1.47
2018-12-16T18:57:31.304Z,1.43
2018-12-16T19:00:04.440Z,1.56
2018-12-16T19:02:36.975Z,1.57
2018-12-16T19:05:08.928Z,1.53
2018-12-16T19:07:41.369Z,1.60
2018-12-16T19:10:13.359Z,1.61
2018-12-16T19:12:47.406Z,1.51
2018-12-16T19:15:20.306Z,1.63
2018-12-16T19:17:50.687Z,1.67
2018-12-16T19:20:22.950Z,1.59
2018-12-16T19:22:55.161Z,1.60
2018-12-16T19:25:29.310Z,1.55
2018-12-16T19:28:03.113Z,1.61
2018-12-16T19:30:35.264Z,1.58
2018-12-16T19:33:08.226Z,1.64
2018-12-16T19:35:40.507Z,1.71
2018-12-16T19:38:13.204Z,1.66
2018-12-16T19:40:46.111Z,1.60
2018-12-16T19:46:11.769Z,1.63
2018-12-16T19:48:45.940Z,1.69
2018-12-16T19:51:18.143Z,1.75
2018-12-16T19:53:50.201Z,1.68
2018-12-16T19:56:22.782Z,1.74
2018-12-16T19:58:53.626Z,1.76
2018-12-16T20:01:26.019Z,1.74
2018-12-16T20:04:03.070Z,1.75
2018-12-16T20:06:38.829Z,1.77
2018-12-16T20:09:13.711Z,1.75
2018-12-16T20:11:48.404Z,1.76
2018-12-16T20:14:19.850Z,1.77
2018-12-16T20:16:55.258Z,1.77
2018-12-16T20:19:28.221Z,1.79
2018-12-16T20:22:00.533Z,1.82
2018-12-16T20:24:33.022Z,1.83
2018-12-16T20:27:11.860Z,1.94
2018-12-16T20:29:39.141Z,1.80
2018-12-16T20:32:11.631Z,1.84
2018-12-16T20:34:41.874Z,1.91
2018-12-16T20:37:14.199Z,1.93
2018-12-16T20:39:44.532Z,1.87
2018-12-16T20:42:16.595Z,1.96
2018-12-16T20:44:54.719Z,1.94
2018-12-16T20:47:29.416Z,1.90
2018-12-16T20:50:01.847Z,1.92
2018-12-16T20:52:33.577Z,1.99
2018-12-16T20:55:06.724Z,1.94
2018-12-16T20:57:39.220Z,1.97
2018-12-16T21:03:10.678Z,1.97
2018-12-16T21:05:42.740Z,2.08
2018-12-16T21:08:14.584Z,2.07
2018-12-16T21:10:48.138Z,2.06
2018-12-16T21:13:25.190Z,2.04
2018-12-16T21:16:02.179Z,2.05
2018-12-16T21:18:35.633Z,2.07
2018-12-16T21:21:12.809Z,2.12
2018-12-16T21:23:48.140Z,2.02
2018-12-16T21:26:22.342Z,1.95
2018-12-16T21:28:56.752Z,1.95
2018-12-16T21:31:29.273Z,1.95
2018-12-16T21:34:01.390Z,1.99
2018-12-16T21:36:34.072Z,2.03
2018-12-16T21:39:09.760Z,2.00
2018-12-16T21:41:43.138Z,2.01
2018-12-16T21:44:15.282Z,1.99
2018-12-16T21:46:47.544Z,1.98
2018-12-16T21:49:20.009Z,1.93
2018-12-16T21:51:52.060Z,1.97
2018-12-16T21:54:25.925Z,2.01
2018-12-16T21:56:58.611Z,1.99
2018-12-16T21:59:28.881Z,2.04
2018-12-16T22:02:04.997Z,2.12
2018-12-16T22:04:37.168Z,2.06
2018-12-16T22:07:09.105Z,2.13
2018-12-16T22:09:39.487Z,2.18
2018-12-16T22:12:11.831Z,2.21
2018-12-16T22:14:43.704Z,2.20
2018-12-16T22:17:30.284Z,2.15
2018-12-16T22:20:02.228Z,2.19
2018-12-16T22:22:36.955Z,2.14
2018-12-16T22:25:10.118Z,2.09
2018-12-16T22:27:42.517Z,2.12
2018-12-16T22:30:16.270Z,2.13
2018-12-16T22:32:49.080Z,2.08
2018-12-16T22:35:21.538Z,2.05
2018-12-16T22:37:53.795Z,1.99
2018-12-16T22:40:26.663Z,1.95
2018-12-16T22:43:01.303Z,1.95
2018-12-16T22:45:33.165Z,2.02
2018-12-16T22:48:05.410Z,2.04
2018-12-16T22:50:37.631Z,2.05
2018-12-16T22:53:09.896Z,2.08
2018-12-16T22:55:41.795Z,2.10
2018-12-16T22:58:14.051Z,2.06
2018-12-16T23:00:51.320Z,1.96
2018-12-16T23:03:25.853Z,1.94
2018-12-16T23:06:03.837Z,1.93
2018-12-16T23:08:36.277Z,1.96
2018-12-16T23:11:08.260Z,2.02
2018-12-16T23:13:40.881Z,2.09
2018-12-16T23:16:12.813Z,2.08
2018-12-16T23:18:44.924Z,2.07
2018-12-16T23:21:16.871Z,2.11
2018-12-16T23:23:47.410Z,2.17
2018-12-16T23:26:20.556Z,2.21
2018-12-16T23:28:50.831Z,2.22
2018-12-16T23:31:23.360Z,2.22
2018-12-16T23:34:17.508Z,2.22
2018-12-16T23:36:51.816Z,2.22
2018-12-16T23:39:23.859Z,2.29
2018-12-16T23:41:55.926Z,2.32
2018-12-16T23:44:30.365Z,2.38
2018-12-16T23:47:02.235Z,2.42
2018-12-16T23:49:36.634Z,2.46
2018-12-16T23:52:09.156Z,2.42
2018-12-16T23:54:41.283Z,2.34
2018-12-16T23:57:13.583Z,2.35
2018-12-16T23:59:45.908Z,2.36
